sensor_id;sensor_type;location;lat;lon;timestamp;P1;durP1;ratioP1;P2;durP2;ratioP2
8654;SDS011;13500;52.514;13.462;2023-05-23T00:01:15;6.37;;;3.87;;
8654;SDS011;13500;52.514;13.462;2023-05-23T00:03:45;5.97;;;3.93;;
8654;SDS011;13500;52.514;13.462;2023-05-23T00:06:17;4.03;;;3.60;;
8654;SDS011;13500;52.514;13.462;2023-05-23T00:08:46;5.30;;;3.73;;
8654;SDS011;13500;52.514;13.462;2023-05-23T00:11:14;7.50;;;3.80;;
8654;SDS011;13500;52.514;13.462;2023-05-23T00:13:44;7.77;;;4.33;;
8654;SDS011;13500;52.514;13.462;2023-05-23T00:16:12;7.67;;;3.80;;
8654;SDS011;13500;52.514;13.462;2023-05-23T00:18:40;5.23;;;3.90;;
8654;SDS011;13500;52.514;13.462;2023-05-23T00:21:10;7.30;;;3.90;;
8654;SDS011;13500;52.514;13.462;2023-05-23T00:23:38;5.13;;;3.80;;
8654;SDS011;13500;52.514;13.462;2023-05-23T00:26:07;4.63;;;3.43;;
8654;SDS011;13500;52.514;13.462;2023-05-23T00:28:36;7.23;;;3.70;;
8654;SDS011;13500;52.514;13.462;2023-05-23T00:31:04;4.17;;;3.77;;
8654;SDS011;13500;52.514;13.462;2023-05-23T00:33:33;7.13;;;4.47;;
8654;SDS011;13500;52.514;13.462;2023-05-23T00:36:01;4.87;;;3.50;;
8654;SDS011;13500;52.514;13.462;2023-05-23T00:38:31;5.50;;;3.80;;
8654;SDS011;13500;52.514;13.462;2023-05-23T00:40:59;6.13;;;3.80;;
8654;SDS011;13500;52.514;13.462;2023-05-23T00:43:27;5.83;;;3.60;;
8654;SDS011;13500;52.514;13.462;2023-05-23T00:45:55;6.20;;;3.80;;
8654;SDS011;13500;52.514;13.462;2023-05-23T00:48:23;5.70;;;4.13;;
8654;SDS011;13500;52.514;13.462;2023-05-23T00:50:51;8.17;;;4.30;;
8654;SDS011;13500;52.514;13.462;2023-05-23T00:53:19;9.10;;;4.20;;
8654;SDS011;13500;52.514;13.462;2023-05-23T00:55:49;7.83;;;4.43;;
8654;SDS011;13500;52.514;13.462;2023-05-23T00:58:18;6.23;;;3.70;;
8654;SDS011;13500;52.514;13.462;2023-05-23T01:00:46;4.67;;;3.80;;
8654;SDS011;13500;52.514;13.462;2023-05-23T01:03:15;6.50;;;3.80;;
8654;SDS011;13500;52.514;13.462;2023-05-23T01:05:44;5.50;;;4.20;;
8654;SDS011;13500;52.514;13.462;2023-05-23T01:08:12;4.30;;;3.60;;
8654;SDS011;13500;52.514;13.462;2023-05-23T01:10:41;4.63;;;4.10;;
8654;SDS011;13500;52.514;13.462;2023-05-23T01:13:16;4.63;;;4.00;;
8654;SDS011;13500;52.514;13.462;2023-05-23T01:15:49;5.47;;;3.93;;
8654;SDS011;13500;52.514;13.462;2023-05-23T01:18:20;5.10;;;4.20;;
8654;SDS011;13500;52.514;13.462;2023-05-23T01:20:53;4.97;;;4.30;;
8654;SDS011;13500;52.514;13.462;2023-05-23T01:23:26;6.13;;;4.27;;
8654;SDS011;13500;52.514;13.462;2023-05-23T01:26:18;5.13;;;3.93;;
8654;SDS011;13500;52.514;13.462;2023-05-23T01:28:55;5.63;;;4.10;;
8654;SDS011;13500;52.514;13.462;2023-05-23T01:31:31;4.50;;;4.07;;
8654;SDS011;13500;52.514;13.462;2023-05-23T01:34:00;4.40;;;4.00;;
8654;SDS011;13500;52.514;13.462;2023-05-23T01:36:28;4.53;;;3.93;;
8654;SDS011;13500;52.514;13.462;2023-05-23T01:39:00;7.77;;;4.03;;
8654;SDS011;13500;52.514;13.462;2023-05-23T01:41:28;5.67;;;4.03;;
8654;SDS011;13500;52.514;13.462;2023-05-23T01:43:59;6.70;;;4.20;;
8654;SDS011;13500;52.514;13.462;2023-05-23T01:46:27;5.97;;;4.10;;
8654;SDS011;13500;52.514;13.462;2023-05-23T01:48:56;7.33;;;3.90;;
8654;SDS011;13500;52.514;13.462;2023-05-23T01:51:24;5.37;;;4.33;;
8654;SDS011;13500;52.514;13.462;2023-05-23T01:53:55;6.97;;;4.43;;
8654;SDS011;13500;52.514;13.462;2023-05-23T01:56:23;4.77;;;4.07;;
8654;SDS011;13500;52.514;13.462;2023-05-23T01:58:52;6.23;;;4.00;;
8654;SDS011;13500;52.514;13.462;2023-05-23T02:01:22;4.63;;;3.97;;
8654;SDS011;13500;52.514;13.462;2023-05-23T02:03:50;7.60;;;4.60;;
8654;SDS011;13500;52.514;13.462;2023-05-23T02:06:18;10.53;;;4.40;;
8654;SDS011;13500;52.514;13.462;2023-05-23T02:08:46;5.70;;;4.50;;
8654;SDS011;13500;52.514;13.462;2023-05-23T02:11:13;8.57;;;4.50;;
8654;SDS011;13500;52.514;13.462;2023-05-23T02:13:41;5.67;;;4.43;;
8654;SDS011;13500;52.514;13.462;2023-05-23T02:16:09;5.17;;;4.20;;
8654;SDS011;13500;52.514;13.462;2023-05-23T02:18:40;5.67;;;4.17;;
8654;SDS011;13500;52.514;13.462;2023-05-23T02:21:11;7.33;;;4.50;;
8654;SDS011;13500;52.514;13.462;2023-05-23T02:23:39;7.70;;;4.50;;
8654;SDS011;13500;52.514;13.462;2023-05-23T02:26:07;5.57;;;4.20;;
8654;SDS011;13500;52.514;13.462;2023-05-23T02:28:35;4.73;;;4.20;;
8654;SDS011;13500;52.514;13.462;2023-05-23T02:31:03;4.97;;;4.43;;
8654;SDS011;13500;52.514;13.462;2023-05-23T02:33:31;5.13;;;4.30;;
8654;SDS011;13500;52.514;13.462;2023-05-23T02:36:01;5.73;;;4.40;;
8654;SDS011;13500;52.514;13.462;2023-05-23T02:38:29;5.53;;;4.30;;
8654;SDS011;13500;52.514;13.462;2023-05-23T02:40:57;5.97;;;4.60;;
8654;SDS011;13500;52.514;13.462;2023-05-23T02:43:26;6.17;;;4.10;;
8654;SDS011;13500;52.514;13.462;2023-05-23T02:45:54;7.20;;;4.37;;
8654;SDS011;13500;52.514;13.462;2023-05-23T02:48:22;6.90;;;4.30;;
8654;SDS011;13500;52.514;13.462;2023-05-23T02:50:50;6.87;;;4.60;;
8654;SDS011;13500;52.514;13.462;2023-05-23T02:53:20;5.20;;;4.40;;
8654;SDS011;13500;52.514;13.462;2023-05-23T02:55:48;7.97;;;4.57;;
8654;SDS011;13500;52.514;13.462;2023-05-23T02:58:16;6.10;;;4.83;;
8654;SDS011;13500;52.514;13.462;2023-05-23T03:00:44;6.37;;;4.33;;
8654;SDS011;13500;52.514;13.462;2023-05-23T03:03:12;9.10;;;4.47;;
8654;SDS011;13500;52.514;13.462;2023-05-23T03:05:40;5.77;;;4.80;;
8654;SDS011;13500;52.514;13.462;2023-05-23T03:08:08;5.57;;;4.57;;
8654;SDS011;13500;52.514;13.462;2023-05-23T03:10:38;6.20;;;4.67;;
8654;SDS011;13500;52.514;13.462;2023-05-23T03:13:06;4.87;;;4.30;;
8654;SDS011;13500;52.514;13.462;2023-05-23T03:15:34;8.80;;;4.77;;
8654;SDS011;13500;52.514;13.462;2023-05-23T03:18:02;9.50;;;4.53;;
8654;SDS011;13500;52.514;13.462;2023-05-23T03:20:30;8.50;;;4.17;;
8654;SDS011;13500;52.514;13.462;2023-05-23T03:22:58;7.07;;;4.60;;
8654;SDS011;13500;52.514;13.462;2023-05-23T03:25:26;7.40;;;4.77;;
8654;SDS011;13500;52.514;13.462;2023-05-23T03:27:56;7.87;;;4.80;;
8654;SDS011;13500;52.514;13.462;2023-05-23T03:30:24;6.33;;;4.60;;
8654;SDS011;13500;52.514;13.462;2023-05-23T03:32:52;5.20;;;4.70;;
8654;SDS011;13500;52.514;13.462;2023-05-23T03:35:21;6.93;;;4.80;;
8654;SDS011;13500;52.514;13.462;2023-05-23T03:37:49;8.13;;;4.80;;
8654;SDS011;13500;52.514;13.462;2023-05-23T03:40:17;9.20;;;4.63;;
8654;SDS011;13500;52.514;13.462;2023-05-23T03:42:46;5.60;;;4.43;;
8654;SDS011;13500;52.514;13.462;2023-05-23T03:45:16;8.27;;;4.90;;
8654;SDS011;13500;52.514;13.462;2023-05-23T03:47:44;6.97;;;4.50;;
8654;SDS011;13500;52.514;13.462;2023-05-23T03:50:12;5.80;;;4.50;;
8654;SDS011;13500;52.514;13.462;2023-05-23T03:52:41;5.50;;;4.47;;
8654;SDS011;13500;52.514;13.462;2023-05-23T03:55:09;6.13;;;4.50;;
8654;SDS011;13500;52.514;13.462;2023-05-23T03:57:37;7.80;;;4.80;;
8654;SDS011;13500;52.514;13.462;2023-05-23T04:00:05;6.10;;;4.50;;
8654;SDS011;13500;52.514;13.462;2023-05-23T04:02:43;5.27;;;4.57;;
8654;SDS011;13500;52.514;13.462;2023-05-23T04:05:15;6.37;;;4.33;;
8654;SDS011;13500;52.514;13.462;2023-05-23T04:07:44;6.17;;;4.53;;
8654;SDS011;13500;52.514;13.462;2023-05-23T04:10:13;5.23;;;4.50;;
8654;SDS011;13500;52.514;13.462;2023-05-23T04:12:41;8.90;;;4.97;;
8654;SDS011;13500;52.514;13.462;2023-05-23T04:15:13;7.33;;;4.90;;
8654;SDS011;13500;52.514;13.462;2023-05-23T04:17:52;8.60;;;4.70;;
8654;SDS011;13500;52.514;13.462;2023-05-23T04:20:22;7.13;;;4.97;;
8654;SDS011;13500;52.514;13.462;2023-05-23T04:22:50;5.37;;;4.70;;
8654;SDS011;13500;52.514;13.462;2023-05-23T04:25:18;5.77;;;4.93;;
8654;SDS011;13500;52.514;13.462;2023-05-23T04:28:01;5.67;;;4.90;;
8654;SDS011;13500;52.514;13.462;2023-05-23T04:30:28;9.17;;;5.00;;
8654;SDS011;13500;52.514;13.462;2023-05-23T04:32:58;6.90;;;5.17;;
8654;SDS011;13500;52.514;13.462;2023-05-23T04:35:27;6.97;;;4.63;;
8654;SDS011;13500;52.514;13.462;2023-05-23T04:37:55;9.60;;;4.73;;
8654;SDS011;13500;52.514;13.462;2023-05-23T04:40:25;12.37;;;5.10;;
8654;SDS011;13500;52.514;13.462;2023-05-23T04:43:00;9.73;;;5.43;;
8654;SDS011;13500;52.514;13.462;2023-05-23T04:45:36;7.73;;;5.00;;
8654;SDS011;13500;52.514;13.462;2023-05-23T04:48:25;9.60;;;4.87;;
8654;SDS011;13500;52.514;13.462;2023-05-23T04:50:55;6.93;;;5.20;;
8654;SDS011;13500;52.514;13.462;2023-05-23T04:53:28;5.73;;;5.00;;
8654;SDS011;13500;52.514;13.462;2023-05-23T04:55:57;10.60;;;5.53;;
8654;SDS011;13500;52.514;13.462;2023-05-23T04:58:25;8.10;;;4.53;;
8654;SDS011;13500;52.514;13.462;2023-05-23T05:00:56;12.60;;;5.00;;
8654;SDS011;13500;52.514;13.462;2023-05-23T05:03:26;8.63;;;5.20;;
8654;SDS011;13500;52.514;13.462;2023-05-23T05:05:55;8.40;;;5.40;;
8654;SDS011;13500;52.514;13.462;2023-05-23T05:08:23;8.83;;;5.17;;
8654;SDS011;13500;52.514;13.462;2023-05-23T05:10:51;6.80;;;4.90;;
8654;SDS011;13500;52.514;13.462;2023-05-23T05:13:21;8.27;;;5.33;;
8654;SDS011;13500;52.514;13.462;2023-05-23T05:15:51;6.77;;;5.07;;
8654;SDS011;13500;52.514;13.462;2023-05-23T05:18:20;5.87;;;5.07;;
8654;SDS011;13500;52.514;13.462;2023-05-23T05:20:50;7.43;;;5.40;;
8654;SDS011;13500;52.514;13.462;2023-05-23T05:23:18;7.77;;;5.70;;
8654;SDS011;13500;52.514;13.462;2023-05-23T05:25:46;7.40;;;5.37;;
8654;SDS011;13500;52.514;13.462;2023-05-23T05:28:14;7.27;;;5.17;;
8654;SDS011;13500;52.514;13.462;2023-05-23T05:30:45;5.77;;;5.20;;
8654;SDS011;13500;52.514;13.462;2023-05-23T05:33:13;10.37;;;5.40;;
8654;SDS011;13500;52.514;13.462;2023-05-23T05:35:43;8.00;;;5.47;;
8654;SDS011;13500;52.514;13.462;2023-05-23T05:38:13;7.83;;;5.40;;
8654;SDS011;13500;52.514;13.462;2023-05-23T05:40:41;7.73;;;5.33;;
8654;SDS011;13500;52.514;13.462;2023-05-23T05:43:09;5.47;;;5.00;;
8654;SDS011;13500;52.514;13.462;2023-05-23T05:45:37;11.47;;;5.60;;
8654;SDS011;13500;52.514;13.462;2023-05-23T05:48:06;6.70;;;5.33;;
8654;SDS011;13500;52.514;13.462;2023-05-23T05:50:34;9.20;;;6.53;;
8654;SDS011;13500;52.514;13.462;2023-05-23T05:53:03;8.37;;;5.40;;
8654;SDS011;13500;52.514;13.462;2023-05-23T05:55:33;10.00;;;6.07;;
8654;SDS011;13500;52.514;13.462;2023-05-23T05:58:00;8.07;;;5.60;;
8654;SDS011;13500;52.514;13.462;2023-05-23T06:00:36;7.23;;;5.63;;
8654;SDS011;13500;52.514;13.462;2023-05-23T06:03:08;9.57;;;5.20;;
8654;SDS011;13500;52.514;13.462;2023-05-23T06:05:43;10.53;;;6.00;;
8654;SDS011;13500;52.514;13.462;2023-05-23T06:08:10;9.97;;;5.77;;
8654;SDS011;13500;52.514;13.462;2023-05-23T06:10:40;9.67;;;6.23;;
8654;SDS011;13500;52.514;13.462;2023-05-23T06:13:09;13.93;;;5.80;;
8654;SDS011;13500;52.514;13.462;2023-05-23T06:15:39;7.33;;;5.53;;
8654;SDS011;13500;52.514;13.462;2023-05-23T06:18:07;13.37;;;6.47;;
8654;SDS011;13500;52.514;13.462;2023-05-23T06:20:35;14.87;;;7.00;;
8654;SDS011;13500;52.514;13.462;2023-05-23T06:23:07;13.80;;;6.80;;
8654;SDS011;13500;52.514;13.462;2023-05-23T06:25:35;10.00;;;6.40;;
8654;SDS011;13500;52.514;13.462;2023-05-23T06:28:04;10.93;;;6.70;;
8654;SDS011;13500;52.514;13.462;2023-05-23T06:30:32;12.80;;;6.50;;
8654;SDS011;13500;52.514;13.462;2023-05-23T06:33:03;10.00;;;6.40;;
8654;SDS011;13500;52.514;13.462;2023-05-23T06:35:31;11.10;;;5.90;;
8654;SDS011;13500;52.514;13.462;2023-05-23T06:37:59;9.87;;;6.10;;
8654;SDS011;13500;52.514;13.462;2023-05-23T06:40:28;11.43;;;6.03;;
8654;SDS011;13500;52.514;13.462;2023-05-23T06:42:57;14.07;;;5.87;;
8654;SDS011;13500;52.514;13.462;2023-05-23T06:45:44;10.20;;;5.73;;
8654;SDS011;13500;52.514;13.462;2023-05-23T06:48:13;10.83;;;6.40;;
8654;SDS011;13500;52.514;13.462;2023-05-23T06:50:42;9.00;;;5.67;;
8654;SDS011;13500;52.514;13.462;2023-05-23T06:53:11;6.63;;;5.50;;
8654;SDS011;13500;52.514;13.462;2023-05-23T06:55:40;10.87;;;5.97;;
8654;SDS011;13500;52.514;13.462;2023-05-23T06:58:12;9.53;;;5.93;;
8654;SDS011;13500;52.514;13.462;2023-05-23T07:00:40;11.07;;;5.97;;
8654;SDS011;13500;52.514;13.462;2023-05-23T07:03:21;11.23;;;6.30;;
8654;SDS011;13500;52.514;13.462;2023-05-23T07:05:49;8.07;;;5.87;;
8654;SDS011;13500;52.514;13.462;2023-05-23T07:08:20;11.63;;;5.90;;
8654;SDS011;13500;52.514;13.462;2023-05-23T07:10:57;10.23;;;6.33;;
8654;SDS011;13500;52.514;13.462;2023-05-23T07:13:31;9.30;;;6.20;;
8654;SDS011;13500;52.514;13.462;2023-05-23T07:15:59;8.23;;;6.00;;
8654;SDS011;13500;52.514;13.462;2023-05-23T07:18:30;6.73;;;5.93;;
8654;SDS011;13500;52.514;13.462;2023-05-23T07:21:01;8.30;;;5.70;;
8654;SDS011;13500;52.514;13.462;2023-05-23T07:23:31;11.50;;;5.63;;
8654;SDS011;13500;52.514;13.462;2023-05-23T07:25:59;8.77;;;5.93;;
8654;SDS011;13500;52.514;13.462;2023-05-23T07:28:41;11.90;;;5.80;;
8654;SDS011;13500;52.514;13.462;2023-05-23T07:31:09;10.50;;;5.90;;
8654;SDS011;13500;52.514;13.462;2023-05-23T07:33:38;11.20;;;6.53;;
8654;SDS011;13500;52.514;13.462;2023-05-23T07:36:09;11.07;;;5.80;;
8654;SDS011;13500;52.514;13.462;2023-05-23T07:38:37;16.20;;;5.20;;
8654;SDS011;13500;52.514;13.462;2023-05-23T07:41:05;11.13;;;5.67;;
8654;SDS011;13500;52.514;13.462;2023-05-23T07:43:38;15.40;;;5.90;;
8654;SDS011;13500;52.514;13.462;2023-05-23T07:46:07;9.67;;;6.07;;
8654;SDS011;13500;52.514;13.462;2023-05-23T07:48:36;8.73;;;4.90;;
8654;SDS011;13500;52.514;13.462;2023-05-23T07:51:06;7.03;;;5.50;;
8654;SDS011;13500;52.514;13.462;2023-05-23T07:53:34;7.37;;;5.37;;
8654;SDS011;13500;52.514;13.462;2023-05-23T07:56:08;9.90;;;5.30;;
8654;SDS011;13500;52.514;13.462;2023-05-23T07:58:39;8.43;;;5.40;;
8654;SDS011;13500;52.514;13.462;2023-05-23T08:01:07;7.17;;;5.30;;
8654;SDS011;13500;52.514;13.462;2023-05-23T08:03:58;6.53;;;5.50;;
8654;SDS011;13500;52.514;13.462;2023-05-23T08:06:32;7.27;;;5.17;;
8654;SDS011;13500;52.514;13.462;2023-05-23T08:09:04;12.40;;;5.30;;
8654;SDS011;13500;52.514;13.462;2023-05-23T08:11:37;7.07;;;5.97;;
8654;SDS011;13500;52.514;13.462;2023-05-23T08:14:05;6.53;;;4.77;;
8654;SDS011;13500;52.514;13.462;2023-05-23T08:16:36;7.20;;;5.33;;
8654;SDS011;13500;52.514;13.462;2023-05-23T08:19:16;6.40;;;4.80;;
8654;SDS011;13500;52.514;13.462;2023-05-23T08:21:46;9.60;;;5.50;;
8654;SDS011;13500;52.514;13.462;2023-05-23T08:24:14;9.97;;;5.50;;
8654;SDS011;13500;52.514;13.462;2023-05-23T08:26:42;7.63;;;5.40;;
8654;SDS011;13500;52.514;13.462;2023-05-23T08:29:12;5.90;;;4.97;;
8654;SDS011;13500;52.514;13.462;2023-05-23T08:31:41;9.57;;;5.50;;
8654;SDS011;13500;52.514;13.462;2023-05-23T08:34:10;9.73;;;5.03;;
8654;SDS011;13500;52.514;13.462;2023-05-23T08:36:40;12.80;;;5.37;;
8654;SDS011;13500;52.514;13.462;2023-05-23T08:39:15;6.30;;;5.53;;
8654;SDS011;13500;52.514;13.462;2023-05-23T08:42:01;11.50;;;5.83;;
8654;SDS011;13500;52.514;13.462;2023-05-23T08:44:29;21.37;;;6.97;;
8654;SDS011;13500;52.514;13.462;2023-05-23T08:47:00;9.17;;;5.80;;
8654;SDS011;13500;52.514;13.462;2023-05-23T08:49:51;5.90;;;5.03;;
8654;SDS011;13500;52.514;13.462;2023-05-23T08:52:23;9.87;;;5.57;;
8654;SDS011;13500;52.514;13.462;2023-05-23T08:54:55;8.30;;;5.40;;
8654;SDS011;13500;52.514;13.462;2023-05-23T08:57:24;6.27;;;5.67;;
8654;SDS011;13500;52.514;13.462;2023-05-23T08:59:57;6.20;;;5.57;;
8654;SDS011;13500;52.514;13.462;2023-05-23T09:02:25;8.87;;;5.77;;
8654;SDS011;13500;52.514;13.462;2023-05-23T09:05:02;6.07;;;5.20;;
8654;SDS011;13500;52.514;13.462;2023-05-23T09:07:30;7.90;;;5.23;;
8654;SDS011;13500;52.514;13.462;2023-05-23T09:10:00;5.90;;;5.40;;
8654;SDS011;13500;52.514;13.462;2023-05-23T09:12:28;9.07;;;5.70;;
8654;SDS011;13500;52.514;13.462;2023-05-23T09:14:56;12.47;;;6.03;;
8654;SDS011;13500;52.514;13.462;2023-05-23T09:17:24;6.50;;;5.20;;
8654;SDS011;13500;52.514;13.462;2023-05-23T09:19:53;7.50;;;5.67;;
8654;SDS011;13500;52.514;13.462;2023-05-23T09:22:37;7.53;;;5.57;;
8654;SDS011;13500;52.514;13.462;2023-05-23T09:25:12;6.57;;;5.13;;
8654;SDS011;13500;52.514;13.462;2023-05-23T09:27:42;6.90;;;5.57;;
8654;SDS011;13500;52.514;13.462;2023-05-23T09:30:14;6.33;;;4.93;;
8654;SDS011;13500;52.514;13.462;2023-05-23T09:32:43;8.73;;;5.23;;
8654;SDS011;13500;52.514;13.462;2023-05-23T09:35:27;6.37;;;5.40;;
8654;SDS011;13500;52.514;13.462;2023-05-23T09:37:56;9.10;;;5.50;;
8654;SDS011;13500;52.514;13.462;2023-05-23T09:40:30;9.03;;;5.47;;
8654;SDS011;13500;52.514;13.462;2023-05-23T09:43:01;8.77;;;6.00;;
8654;SDS011;13500;52.514;13.462;2023-05-23T09:45:31;15.30;;;6.00;;
8654;SDS011;13500;52.514;13.462;2023-05-23T09:48:00;6.57;;;5.90;;
8654;SDS011;13500;52.514;13.462;2023-05-23T09:50:30;9.20;;;6.23;;
8654;SDS011;13500;52.514;13.462;2023-05-23T09:53:01;7.67;;;5.63;;
8654;SDS011;13500;52.514;13.462;2023-05-23T09:55:30;9.67;;;6.07;;
8654;SDS011;13500;52.514;13.462;2023-05-23T09:57:58;8.17;;;6.03;;
8654;SDS011;13500;52.514;13.462;2023-05-23T10:00:27;8.33;;;5.80;;
8654;SDS011;13500;52.514;13.462;2023-05-23T10:02:57;11.00;;;5.97;;
8654;SDS011;13500;52.514;13.462;2023-05-23T10:05:34;8.13;;;5.70;;
8654;SDS011;13500;52.514;13.462;2023-05-23T10:08:05;7.10;;;6.30;;
8654;SDS011;13500;52.514;13.462;2023-05-23T10:10:48;9.23;;;5.83;;
8654;SDS011;13500;52.514;13.462;2023-05-23T10:13:56;7.20;;;6.13;;
8654;SDS011;13500;52.514;13.462;2023-05-23T10:16:26;8.27;;;5.97;;
8654;SDS011;13500;52.514;13.462;2023-05-23T10:18:58;9.17;;;5.50;;
8654;SDS011;13500;52.514;13.462;2023-05-23T10:21:32;8.03;;;5.77;;
8654;SDS011;13500;52.514;13.462;2023-05-23T10:24:02;6.43;;;5.50;;
8654;SDS011;13500;52.514;13.462;2023-05-23T10:26:32;6.63;;;5.63;;
8654;SDS011;13500;52.514;13.462;2023-05-23T10:29:00;8.43;;;5.53;;
8654;SDS011;13500;52.514;13.462;2023-05-23T10:31:28;7.00;;;5.80;;
8654;SDS011;13500;52.514;13.462;2023-05-23T10:33:59;6.63;;;5.50;;
8654;SDS011;13500;52.514;13.462;2023-05-23T10:36:32;6.57;;;5.70;;
8654;SDS011;13500;52.514;13.462;2023-05-23T10:39:05;9.53;;;6.27;;
8654;SDS011;13500;52.514;13.462;2023-05-23T10:41:40;6.50;;;5.90;;
8654;SDS011;13500;52.514;13.462;2023-05-23T10:44:11;6.97;;;6.37;;
8654;SDS011;13500;52.514;13.462;2023-05-23T10:46:49;7.97;;;6.67;;
8654;SDS011;13500;52.514;13.462;2023-05-23T10:49:18;9.27;;;7.00;;
8654;SDS011;13500;52.514;13.462;2023-05-23T10:51:47;6.73;;;6.00;;
8654;SDS011;13500;52.514;13.462;2023-05-23T10:54:17;7.60;;;6.37;;
8654;SDS011;13500;52.514;13.462;2023-05-23T10:56:48;7.27;;;6.57;;
8654;SDS011;13500;52.514;13.462;2023-05-23T10:59:29;9.13;;;8.23;;
8654;SDS011;13500;52.514;13.462;2023-05-23T11:01:58;9.70;;;8.90;;
8654;SDS011;13500;52.514;13.462;2023-05-23T11:04:27;10.67;;;9.57;;
8654;SDS011;13500;52.514;13.462;2023-05-23T11:06:56;10.87;;;9.47;;
8654;SDS011;13500;52.514;13.462;2023-05-23T11:09:24;10.40;;;9.33;;
8654;SDS011;13500;52.514;13.462;2023-05-23T11:11:54;11.20;;;10.13;;
8654;SDS011;13500;52.514;13.462;2023-05-23T11:14:31;10.53;;;9.53;;
8654;SDS011;13500;52.514;13.462;2023-05-23T11:17:13;11.70;;;10.50;;
8654;SDS011;13500;52.514;13.462;2023-05-23T11:22:32;11.47;;;10.43;;
8654;SDS011;13500;52.514;13.462;2023-05-23T11:25:05;14.17;;;10.80;;
8654;SDS011;13500;52.514;13.462;2023-05-23T11:27:35;12.57;;;11.27;;
8654;SDS011;13500;52.514;13.462;2023-05-23T11:30:06;16.23;;;13.27;;
8654;SDS011;13500;52.514;13.462;2023-05-23T11:32:35;14.07;;;12.67;;
8654;SDS011;13500;52.514;13.462;2023-05-23T11:35:04;13.73;;;11.87;;
8654;SDS011;13500;52.514;13.462;2023-05-23T11:37:33;12.77;;;11.67;;
8654;SDS011;13500;52.514;13.462;2023-05-23T11:42:55;13.07;;;11.93;;
8654;SDS011;13500;52.514;13.462;2023-05-23T11:45:23;14.90;;;13.40;;
8654;SDS011;13500;52.514;13.462;2023-05-23T11:47:52;14.50;;;13.03;;
8654;SDS011;13500;52.514;13.462;2023-05-23T11:50:20;15.00;;;13.67;;
8654;SDS011;13500;52.514;13.462;2023-05-23T11:52:49;15.80;;;14.30;;
8654;SDS011;13500;52.514;13.462;2023-05-23T11:55:18;15.20;;;13.70;;
8654;SDS011;13500;52.514;13.462;2023-05-23T11:57:46;14.77;;;13.47;;
8654;SDS011;13500;52.514;13.462;2023-05-23T12:00:17;16.73;;;15.13;;
8654;SDS011;13500;52.514;13.462;2023-05-23T12:02:46;15.83;;;14.30;;
8654;SDS011;13500;52.514;13.462;2023-05-23T12:05:15;16.60;;;14.80;;
8654;SDS011;13500;52.514;13.462;2023-05-23T12:07:43;15.83;;;14.37;;
8654;SDS011;13500;52.514;13.462;2023-05-23T12:10:13;16.03;;;14.53;;
8654;SDS011;13500;52.514;13.462;2023-05-23T12:12:42;17.97;;;16.27;;
8654;SDS011;13500;52.514;13.462;2023-05-23T12:15:10;19.10;;;16.07;;
8654;SDS011;13500;52.514;13.462;2023-05-23T12:17:43;17.77;;;15.97;;
8654;SDS011;13500;52.514;13.462;2023-05-23T12:20:12;18.03;;;16.13;;
8654;SDS011;13500;52.514;13.462;2023-05-23T12:22:40;18.00;;;16.33;;
8654;SDS011;13500;52.514;13.462;2023-05-23T12:25:08;18.00;;;16.20;;
8654;SDS011;13500;52.514;13.462;2023-05-23T12:27:38;17.90;;;16.00;;
8654;SDS011;13500;52.514;13.462;2023-05-23T12:30:08;16.63;;;14.87;;
8654;SDS011;13500;52.514;13.462;2023-05-23T12:32:38;16.27;;;14.77;;
8654;SDS011;13500;52.514;13.462;2023-05-23T12:35:08;17.43;;;15.67;;
8654;SDS011;13500;52.514;13.462;2023-05-23T12:37:38;17.73;;;15.97;;
8654;SDS011;13500;52.514;13.462;2023-05-23T12:40:10;16.53;;;14.93;;
8654;SDS011;13500;52.514;13.462;2023-05-23T12:42:43;17.50;;;15.80;;
8654;SDS011;13500;52.514;13.462;2023-05-23T12:45:18;17.67;;;15.97;;
8654;SDS011;13500;52.514;13.462;2023-05-23T12:47:46;18.20;;;16.10;;
8654;SDS011;13500;52.514;13.462;2023-05-23T12:50:19;19.50;;;16.40;;
8654;SDS011;13500;52.514;13.462;2023-05-23T12:52:47;16.53;;;14.87;;
8654;SDS011;13500;52.514;13.462;2023-05-23T12:55:15;17.10;;;15.37;;
8654;SDS011;13500;52.514;13.462;2023-05-23T12:57:43;16.03;;;14.53;;
8654;SDS011;13500;52.514;13.462;2023-05-23T13:00:12;15.63;;;14.13;;
8654;SDS011;13500;52.514;13.462;2023-05-23T13:02:40;15.40;;;13.83;;
8654;SDS011;13500;52.514;13.462;2023-05-23T13:05:08;15.80;;;14.10;;
8654;SDS011;13500;52.514;13.462;2023-05-23T13:07:38;16.63;;;13.60;;
8654;SDS011;13500;52.514;13.462;2023-05-23T13:10:07;13.97;;;12.67;;
8654;SDS011;13500;52.514;13.462;2023-05-23T13:12:35;15.07;;;13.67;;
8654;SDS011;13500;52.514;13.462;2023-05-23T13:15:04;13.97;;;12.53;;
8654;SDS011;13500;52.514;13.462;2023-05-23T13:17:33;13.73;;;12.50;;
8654;SDS011;13500;52.514;13.462;2023-05-23T13:20:01;16.17;;;13.53;;
8654;SDS011;13500;52.514;13.462;2023-05-23T13:22:30;14.60;;;13.13;;
8654;SDS011;13500;52.514;13.462;2023-05-23T13:25:00;14.00;;;12.60;;
8654;SDS011;13500;52.514;13.462;2023-05-23T13:27:28;15.73;;;14.00;;
8654;SDS011;13500;52.514;13.462;2023-05-23T13:29:58;15.70;;;14.10;;
8654;SDS011;13500;52.514;13.462;2023-05-23T13:32:26;18.50;;;16.60;;
8654;SDS011;13500;52.514;13.462;2023-05-23T13:34:54;16.83;;;15.20;;
8654;SDS011;13500;52.514;13.462;2023-05-23T13:37:22;16.20;;;14.60;;
8654;SDS011;13500;52.514;13.462;2023-05-23T13:39:50;17.97;;;16.13;;
8654;SDS011;13500;52.514;13.462;2023-05-23T13:42:19;17.83;;;16.13;;
8654;SDS011;13500;52.514;13.462;2023-05-23T13:44:47;17.83;;;16.10;;
8654;SDS011;13500;52.514;13.462;2023-05-23T13:47:16;18.10;;;15.50;;
8654;SDS011;13500;52.514;13.462;2023-05-23T13:49:44;17.07;;;15.40;;
8654;SDS011;13500;52.514;13.462;2023-05-23T13:52:12;18.77;;;15.30;;
8654;SDS011;13500;52.514;13.462;2023-05-23T13:54:40;16.30;;;14.70;;
8654;SDS011;13500;52.514;13.462;2023-05-23T13:57:08;17.33;;;13.93;;
8654;SDS011;13500;52.514;13.462;2023-05-23T13:59:38;16.33;;;14.73;;
8654;SDS011;13500;52.514;13.462;2023-05-23T14:02:06;15.70;;;14.17;;
8654;SDS011;13500;52.514;13.462;2023-05-23T14:04:34;18.50;;;13.53;;
8654;SDS011;13500;52.514;13.462;2023-05-23T14:07:02;16.00;;;14.33;;
8654;SDS011;13500;52.514;13.462;2023-05-23T14:09:30;16.17;;;14.40;;
8654;SDS011;13500;52.514;13.462;2023-05-23T14:11:58;16.53;;;14.93;;
8654;SDS011;13500;52.514;13.462;2023-05-23T14:14:26;16.93;;;14.20;;
8654;SDS011;13500;52.514;13.462;2023-05-23T14:16:56;15.87;;;14.17;;
8654;SDS011;13500;52.514;13.462;2023-05-23T14:19:24;18.20;;;16.23;;
8654;SDS011;13500;52.514;13.462;2023-05-23T14:21:52;17.47;;;15.77;;
8654;SDS011;13500;52.514;13.462;2023-05-23T14:24:20;18.63;;;16.63;;
8654;SDS011;13500;52.514;13.462;2023-05-23T14:26:48;18.17;;;16.13;;
8654;SDS011;13500;52.514;13.462;2023-05-23T14:29:16;17.63;;;15.83;;
8654;SDS011;13500;52.514;13.462;2023-05-23T14:31:44;17.57;;;15.67;;
8654;SDS011;13500;52.514;13.462;2023-05-23T14:34:13;17.87;;;15.97;;
8654;SDS011;13500;52.514;13.462;2023-05-23T14:36:41;20.50;;;16.67;;
8654;SDS011;13500;52.514;13.462;2023-05-23T14:39:09;18.10;;;16.20;;
8654;SDS011;13500;52.514;13.462;2023-05-23T14:41:37;17.93;;;16.10;;
8654;SDS011;13500;52.514;13.462;2023-05-23T14:44:05;17.03;;;15.13;;
8654;SDS011;13500;52.514;13.462;2023-05-23T14:46:33;16.77;;;15.00;;
8654;SDS011;13500;52.514;13.462;2023-05-23T14:49:01;16.67;;;15.07;;
8654;SDS011;13500;52.514;13.462;2023-05-23T14:51:30;16.50;;;14.90;;
8654;SDS011;13500;52.514;13.462;2023-05-23T14:54:11;16.57;;;14.80;;
8654;SDS011;13500;52.514;13.462;2023-05-23T14:56:41;16.20;;;14.50;;
8654;SDS011;13500;52.514;13.462;2023-05-23T14:59:09;15.10;;;13.60;;
8654;SDS011;13500;52.514;13.462;2023-05-23T15:01:37;14.93;;;13.53;;